sensor_id;sensor_type;location;lat;lon;timestamp;P1;durP1;ratioP1;P2;durP2;ratioP2
29854;SDS011;16733;48.738;9.106;2023-08-24T00:01:33;6.75;;;2.70;;
29854;SDS011;16733;48.738;9.106;2023-08-24T00:03:59;9.40;;;2.78;;
29854;SDS011;16733;48.738;9.106;2023-08-24T00:06:25;9.63;;;2.83;;
29854;SDS011;16733;48.738;9.106;2023-08-24T00:08:52;4.07;;;2.50;;
29854;SDS011;16733;48.738;9.106;2023-08-24T00:11:18;6.53;;;3.28;;
29854;SDS011;16733;48.738;9.106;2023-08-24T00:13:44;7.60;;;2.85;;
29854;SDS011;16733;48.738;9.106;2023-08-24T00:16:14;8.45;;;2.78;;
29854;SDS011;16733;48.738;9.106;2023-08-24T00:18:41;3.67;;;2.65;;
29854;SDS011;16733;48.738;9.106;2023-08-24T00:21:07;9.73;;;3.10;;
29854;SDS011;16733;48.738;9.106;2023-08-24T00:23:33;4.32;;;3.10;;
29854;SDS011;16733;48.738;9.106;2023-08-24T00:25:59;5.60;;;3.00;;
29854;SDS011;16733;48.738;9.106;2023-08-24T00:28:25;6.65;;;3.30;;
29854;SDS011;16733;48.738;9.106;2023-08-24T00:30:51;3.63;;;2.72;;
29854;SDS011;16733;48.738;9.106;2023-08-24T00:33:17;6.18;;;3.20;;
29854;SDS011;16733;48.738;9.106;2023-08-24T00:35:44;5.80;;;3.10;;
29854;SDS011;16733;48.738;9.106;2023-08-24T00:38:10;5.82;;;3.20;;
29854;SDS011;16733;48.738;9.106;2023-08-24T00:40:36;5.32;;;2.92;;
29854;SDS011;16733;48.738;9.106;2023-08-24T00:43:03;7.35;;;3.13;;
29854;SDS011;16733;48.738;9.106;2023-08-24T00:45:30;4.60;;;3.30;;
29854;SDS011;16733;48.738;9.106;2023-08-24T00:47:57;3.90;;;2.92;;
29854;SDS011;16733;48.738;9.106;2023-08-24T00:50:24;6.07;;;3.42;;
29854;SDS011;16733;48.738;9.106;2023-08-24T00:52:50;7.97;;;3.22;;
29854;SDS011;16733;48.738;9.106;2023-08-24T00:55:16;5.32;;;3.58;;
29854;SDS011;16733;48.738;9.106;2023-08-24T00:57:42;5.35;;;3.13;;
29854;SDS011;16733;48.738;9.106;2023-08-24T01:00:09;7.72;;;3.47;;
29854;SDS011;16733;48.738;9.106;2023-08-24T01:02:36;6.53;;;2.92;;
29854;SDS011;16733;48.738;9.106;2023-08-24T01:05:02;7.47;;;3.20;;
29854;SDS011;16733;48.738;9.106;2023-08-24T01:07:34;4.93;;;3.03;;
29854;SDS011;16733;48.738;9.106;2023-08-24T01:10:02;8.93;;;3.25;;
29854;SDS011;16733;48.738;9.106;2023-08-24T01:15:23;7.53;;;3.47;;
29854;SDS011;16733;48.738;9.106;2023-08-24T01:17:51;4.55;;;3.25;;
29854;SDS011;16733;48.738;9.106;2023-08-24T01:20:20;5.75;;;3.63;;
29854;SDS011;16733;48.738;9.106;2023-08-24T01:27:58;4.82;;;3.35;;
29854;SDS011;16733;48.738;9.106;2023-08-24T01:30:24;6.85;;;3.30;;
29854;SDS011;16733;48.738;9.106;2023-08-24T01:32:51;7.25;;;3.60;;
29854;SDS011;16733;48.738;9.106;2023-08-24T01:35:17;11.13;;;3.60;;
29854;SDS011;16733;48.738;9.106;2023-08-24T01:37:43;7.05;;;3.50;;
29854;SDS011;16733;48.738;9.106;2023-08-24T01:40:17;6.55;;;3.85;;
29854;SDS011;16733;48.738;9.106;2023-08-24T01:43:00;6.32;;;3.63;;
29854;SDS011;16733;48.738;9.106;2023-08-24T01:45:31;10.82;;;3.70;;
29854;SDS011;16733;48.738;9.106;2023-08-24T01:47:59;6.57;;;3.40;;
29854;SDS011;16733;48.738;9.106;2023-08-24T01:50:26;5.47;;;3.42;;
29854;SDS011;16733;48.738;9.106;2023-08-24T01:52:52;5.82;;;3.40;;
29854;SDS011;16733;48.738;9.106;2023-08-24T01:55:18;7.80;;;3.50;;
29854;SDS011;16733;48.738;9.106;2023-08-24T01:57:48;6.07;;;3.47;;
29854;SDS011;16733;48.738;9.106;2023-08-24T02:00:14;4.97;;;3.40;;
29854;SDS011;16733;48.738;9.106;2023-08-24T02:02:42;8.15;;;3.63;;
29854;SDS011;16733;48.738;9.106;2023-08-24T02:05:08;4.85;;;3.40;;
29854;SDS011;16733;48.738;9.106;2023-08-24T02:07:34;4.72;;;3.42;;
29854;SDS011;16733;48.738;9.106;2023-08-24T02:10:00;5.97;;;3.75;;
29854;SDS011;16733;48.738;9.106;2023-08-24T02:12:26;4.53;;;3.58;;
29854;SDS011;16733;48.738;9.106;2023-08-24T02:14:53;7.18;;;3.65;;
29854;SDS011;16733;48.738;9.106;2023-08-24T02:17:18;6.13;;;3.75;;
29854;SDS011;16733;48.738;9.106;2023-08-24T02:19:44;10.38;;;3.53;;
29854;SDS011;16733;48.738;9.106;2023-08-24T02:22:10;5.13;;;3.28;;
29854;SDS011;16733;48.738;9.106;2023-08-24T02:24:36;6.28;;;3.88;;
29854;SDS011;16733;48.738;9.106;2023-08-24T02:27:02;13.02;;;4.10;;
29854;SDS011;16733;48.738;9.106;2023-08-24T02:29:28;8.25;;;3.60;;
29854;SDS011;16733;48.738;9.106;2023-08-24T02:31:55;4.32;;;3.50;;
29854;SDS011;16733;48.738;9.106;2023-08-24T02:34:21;9.15;;;3.90;;
29854;SDS011;16733;48.738;9.106;2023-08-24T02:36:47;6.78;;;3.28;;
29854;SDS011;16733;48.738;9.106;2023-08-24T02:39:13;4.90;;;3.30;;
29854;SDS011;16733;48.738;9.106;2023-08-24T02:41:39;6.10;;;3.78;;
29854;SDS011;16733;48.738;9.106;2023-08-24T02:44:05;4.88;;;3.15;;
29854;SDS011;16733;48.738;9.106;2023-08-24T02:46:31;11.40;;;3.80;;
29854;SDS011;16733;48.738;9.106;2023-08-24T02:48:57;7.63;;;3.38;;
29854;SDS011;16733;48.738;9.106;2023-08-24T02:51:23;5.93;;;3.50;;
29854;SDS011;16733;48.738;9.106;2023-08-24T02:53:49;7.65;;;3.38;;
29854;SDS011;16733;48.738;9.106;2023-08-24T02:56:16;5.90;;;3.78;;
29854;SDS011;16733;48.738;9.106;2023-08-24T02:58:42;5.28;;;3.35;;
29854;SDS011;16733;48.738;9.106;2023-08-24T03:01:08;6.60;;;3.60;;
29854;SDS011;16733;48.738;9.106;2023-08-24T03:03:37;8.48;;;3.50;;
29854;SDS011;16733;48.738;9.106;2023-08-24T03:06:06;5.30;;;3.30;;
29854;SDS011;16733;48.738;9.106;2023-08-24T03:08:33;7.93;;;3.90;;
29854;SDS011;16733;48.738;9.106;2023-08-24T03:11:00;10.13;;;4.00;;
29854;SDS011;16733;48.738;9.106;2023-08-24T03:13:27;6.90;;;3.38;;
29854;SDS011;16733;48.738;9.106;2023-08-24T03:15:53;3.97;;;3.45;;
29854;SDS011;16733;48.738;9.106;2023-08-24T03:18:19;4.75;;;3.85;;
29854;SDS011;16733;48.738;9.106;2023-08-24T03:20:46;7.10;;;4.07;;
29854;SDS011;16733;48.738;9.106;2023-08-24T03:23:12;5.70;;;3.65;;
29854;SDS011;16733;48.738;9.106;2023-08-24T03:25:39;7.85;;;3.47;;
29854;SDS011;16733;48.738;9.106;2023-08-24T03:28:05;6.97;;;3.60;;
29854;SDS011;16733;48.738;9.106;2023-08-24T03:30:35;6.85;;;4.07;;
29854;SDS011;16733;48.738;9.106;2023-08-24T03:33:01;4.30;;;3.72;;
29854;SDS011;16733;48.738;9.106;2023-08-24T03:35:28;7.60;;;3.92;;
29854;SDS011;16733;48.738;9.106;2023-08-24T03:37:55;6.43;;;3.50;;
29854;SDS011;16733;48.738;9.106;2023-08-24T03:40:21;7.25;;;3.88;;
29854;SDS011;16733;48.738;9.106;2023-08-24T03:42:47;4.95;;;3.70;;
29854;SDS011;16733;48.738;9.106;2023-08-24T03:45:13;4.55;;;3.50;;
29854;SDS011;16733;48.738;9.106;2023-08-24T03:47:39;11.13;;;4.38;;
29854;SDS011;16733;48.738;9.106;2023-08-24T03:50:05;6.35;;;4.07;;
29854;SDS011;16733;48.738;9.106;2023-08-24T03:52:31;13.95;;;4.38;;
29854;SDS011;16733;48.738;9.106;2023-08-24T03:54:58;7.20;;;4.20;;
29854;SDS011;16733;48.738;9.106;2023-08-24T03:57:24;6.60;;;3.85;;
29854;SDS011;16733;48.738;9.106;2023-08-24T03:59:50;9.20;;;4.15;;
29854;SDS011;16733;48.738;9.106;2023-08-24T04:02:16;5.97;;;3.95;;
29854;SDS011;16733;48.738;9.106;2023-08-24T04:04:42;5.43;;;3.70;;
29854;SDS011;16733;48.738;9.106;2023-08-24T04:07:08;5.90;;;3.72;;
29854;SDS011;16733;48.738;9.106;2023-08-24T04:09:34;12.55;;;4.28;;
29854;SDS011;16733;48.738;9.106;2023-08-24T04:12:00;8.57;;;3.78;;
29854;SDS011;16733;48.738;9.106;2023-08-24T04:14:26;6.78;;;4.25;;
29854;SDS011;16733;48.738;9.106;2023-08-24T04:16:52;7.50;;;3.63;;
29854;SDS011;16733;48.738;9.106;2023-08-24T04:19:18;5.30;;;4.15;;
29854;SDS011;16733;48.738;9.106;2023-08-24T04:21:44;6.70;;;4.22;;
29854;SDS011;16733;48.738;9.106;2023-08-24T04:24:10;7.40;;;3.83;;
29854;SDS011;16733;48.738;9.106;2023-08-24T04:26:35;5.47;;;3.80;;
29854;SDS011;16733;48.738;9.106;2023-08-24T04:29:01;6.25;;;3.80;;
29854;SDS011;16733;48.738;9.106;2023-08-24T04:31:27;8.25;;;4.05;;
29854;SDS011;16733;48.738;9.106;2023-08-24T04:33:53;7.85;;;4.32;;
29854;SDS011;16733;48.738;9.106;2023-08-24T04:36:19;5.68;;;3.75;;
29854;SDS011;16733;48.738;9.106;2023-08-24T04:38:45;12.20;;;4.10;;
29854;SDS011;16733;48.738;9.106;2023-08-24T04:41:11;6.45;;;3.65;;
29854;SDS011;16733;48.738;9.106;2023-08-24T04:43:38;6.97;;;4.40;;
29854;SDS011;16733;48.738;9.106;2023-08-24T04:46:04;5.72;;;3.90;;
29854;SDS011;16733;48.738;9.106;2023-08-24T04:48:30;8.55;;;4.50;;
29854;SDS011;16733;48.738;9.106;2023-08-24T04:51:00;11.80;;;4.45;;
29854;SDS011;16733;48.738;9.106;2023-08-24T04:53:26;8.55;;;4.40;;
29854;SDS011;16733;48.738;9.106;2023-08-24T04:55:52;6.93;;;3.92;;
29854;SDS011;16733;48.738;9.106;2023-08-24T04:58:19;10.13;;;4.13;;
29854;SDS011;16733;48.738;9.106;2023-08-24T05:00:45;6.68;;;4.43;;
29854;SDS011;16733;48.738;9.106;2023-08-24T05:03:11;9.73;;;4.03;;
29854;SDS011;16733;48.738;9.106;2023-08-24T05:05:38;12.20;;;4.28;;
29854;SDS011;16733;48.738;9.106;2023-08-24T05:08:04;8.57;;;4.07;;
29854;SDS011;16733;48.738;9.106;2023-08-24T05:10:31;7.78;;;4.43;;
29854;SDS011;16733;48.738;9.106;2023-08-24T05:12:58;5.20;;;3.85;;
29854;SDS011;16733;48.738;9.106;2023-08-24T05:15:23;6.57;;;4.07;;
29854;SDS011;16733;48.738;9.106;2023-08-24T05:17:50;6.38;;;4.63;;
29854;SDS011;16733;48.738;9.106;2023-08-24T05:20:19;7.43;;;4.90;;
29854;SDS011;16733;48.738;9.106;2023-08-24T05:22:45;7.18;;;4.07;;
29854;SDS011;16733;48.738;9.106;2023-08-24T05:25:11;6.72;;;4.07;;
29854;SDS011;16733;48.738;9.106;2023-08-24T05:27:37;7.82;;;4.18;;
29854;SDS011;16733;48.738;9.106;2023-08-24T05:30:03;5.72;;;4.05;;
29854;SDS011;16733;48.738;9.106;2023-08-24T05:32:30;6.05;;;4.38;;
29854;SDS011;16733;48.738;9.106;2023-08-24T05:34:56;16.25;;;4.18;;
29854;SDS011;16733;48.738;9.106;2023-08-24T05:37:23;7.65;;;3.72;;
29854;SDS011;16733;48.738;9.106;2023-08-24T05:39:49;12.43;;;4.65;;
29854;SDS011;16733;48.738;9.106;2023-08-24T05:42:15;11.38;;;3.72;;
29854;SDS011;16733;48.738;9.106;2023-08-24T05:44:41;7.70;;;3.92;;
29854;SDS011;16733;48.738;9.106;2023-08-24T05:47:07;5.22;;;3.33;;
29854;SDS011;16733;48.738;9.106;2023-08-24T05:49:33;7.25;;;3.97;;
29854;SDS011;16733;48.738;9.106;2023-08-24T05:51:59;4.75;;;4.00;;
29854;SDS011;16733;48.738;9.106;2023-08-24T05:54:25;6.85;;;3.70;;
29854;SDS011;16733;48.738;9.106;2023-08-24T05:56:51;11.48;;;3.83;;
29854;SDS011;16733;48.738;9.106;2023-08-24T05:59:16;8.50;;;4.05;;
29854;SDS011;16733;48.738;9.106;2023-08-24T06:01:42;5.40;;;3.78;;
29854;SDS011;16733;48.738;9.106;2023-08-24T06:04:08;10.30;;;3.42;;
29854;SDS011;16733;48.738;9.106;2023-08-24T06:06:35;15.90;;;4.07;;
29854;SDS011;16733;48.738;9.106;2023-08-24T06:09:01;10.65;;;4.38;;
29854;SDS011;16733;48.738;9.106;2023-08-24T06:11:30;11.68;;;4.00;;
29854;SDS011;16733;48.738;9.106;2023-08-24T06:13:56;8.85;;;3.80;;
29854;SDS011;16733;48.738;9.106;2023-08-24T06:16:22;9.85;;;3.90;;
29854;SDS011;16733;48.738;9.106;2023-08-24T06:18:48;8.60;;;3.70;;
29854;SDS011;16733;48.738;9.106;2023-08-24T06:21:15;6.60;;;3.95;;
29854;SDS011;16733;48.738;9.106;2023-08-24T06:23:41;7.55;;;3.70;;
29854;SDS011;16733;48.738;9.106;2023-08-24T06:26:07;11.23;;;3.67;;
29854;SDS011;16733;48.738;9.106;2023-08-24T06:28:33;11.57;;;3.38;;
29854;SDS011;16733;48.738;9.106;2023-08-24T06:30:59;11.13;;;3.80;;
29854;SDS011;16733;48.738;9.106;2023-08-24T06:33:29;8.77;;;3.42;;
29854;SDS011;16733;48.738;9.106;2023-08-24T06:35:56;10.13;;;3.75;;
29854;SDS011;16733;48.738;9.106;2023-08-24T06:38:22;8.30;;;3.28;;
29854;SDS011;16733;48.738;9.106;2023-08-24T06:40:48;7.70;;;3.30;;
29854;SDS011;16733;48.738;9.106;2023-08-24T06:43:14;11.50;;;3.60;;
29854;SDS011;16733;48.738;9.106;2023-08-24T06:45:40;8.00;;;3.15;;
29854;SDS011;16733;48.738;9.106;2023-08-24T06:48:06;6.90;;;3.17;;
29854;SDS011;16733;48.738;9.106;2023-08-24T06:50:33;9.45;;;3.97;;
29854;SDS011;16733;48.738;9.106;2023-08-24T06:52:59;8.43;;;3.53;;
29854;SDS011;16733;48.738;9.106;2023-08-24T06:55:26;9.52;;;3.78;;
29854;SDS011;16733;48.738;9.106;2023-08-24T06:57:52;5.65;;;3.42;;
29854;SDS011;16733;48.738;9.106;2023-08-24T07:00:18;5.75;;;3.20;;
29854;SDS011;16733;48.738;9.106;2023-08-24T07:02:48;12.27;;;2.88;;
29854;SDS011;16733;48.738;9.106;2023-08-24T07:05:14;8.90;;;3.58;;
29854;SDS011;16733;48.738;9.106;2023-08-24T07:07:43;9.00;;;3.42;;
29854;SDS011;16733;48.738;9.106;2023-08-24T07:10:10;9.10;;;3.17;;
29854;SDS011;16733;48.738;9.106;2023-08-24T07:12:36;3.50;;;2.67;;
29854;SDS011;16733;48.738;9.106;2023-08-24T07:15:04;9.15;;;3.33;;
29854;SDS011;16733;48.738;9.106;2023-08-24T07:17:30;7.95;;;3.20;;
29854;SDS011;16733;48.738;9.106;2023-08-24T07:19:57;7.80;;;2.85;;
29854;SDS011;16733;48.738;9.106;2023-08-24T07:22:23;8.85;;;3.28;;
29854;SDS011;16733;48.738;9.106;2023-08-24T07:24:51;4.03;;;2.80;;
29854;SDS011;16733;48.738;9.106;2023-08-24T07:27:17;7.18;;;3.03;;
29854;SDS011;16733;48.738;9.106;2023-08-24T07:29:43;4.53;;;2.75;;
29854;SDS011;16733;48.738;9.106;2023-08-24T07:32:09;7.35;;;3.03;;
29854;SDS011;16733;48.738;9.106;2023-08-24T07:34:35;5.10;;;3.63;;
29854;SDS011;16733;48.738;9.106;2023-08-24T07:37:01;5.63;;;3.03;;
29854;SDS011;16733;48.738;9.106;2023-08-24T07:39:28;5.38;;;2.92;;
29854;SDS011;16733;48.738;9.106;2023-08-24T07:41:54;5.80;;;3.28;;
29854;SDS011;16733;48.738;9.106;2023-08-24T07:44:20;3.97;;;3.10;;
29854;SDS011;16733;48.738;9.106;2023-08-24T07:46:46;5.80;;;3.58;;
29854;SDS011;16733;48.738;9.106;2023-08-24T07:49:13;10.35;;;3.13;;
29854;SDS011;16733;48.738;9.106;2023-08-24T07:51:39;4.97;;;3.20;;
29854;SDS011;16733;48.738;9.106;2023-08-24T07:54:05;5.30;;;3.15;;
29854;SDS011;16733;48.738;9.106;2023-08-24T07:56:32;7.03;;;3.17;;
29854;SDS011;16733;48.738;9.106;2023-08-24T07:58:58;5.45;;;3.08;;
29854;SDS011;16733;48.738;9.106;2023-08-24T08:01:24;6.43;;;3.22;;
29854;SDS011;16733;48.738;9.106;2023-08-24T08:03:50;8.57;;;3.38;;
29854;SDS011;16733;48.738;9.106;2023-08-24T08:06:16;8.15;;;3.30;;
29854;SDS011;16733;48.738;9.106;2023-08-24T08:08:42;9.30;;;3.20;;
29854;SDS011;16733;48.738;9.106;2023-08-24T08:11:10;4.72;;;3.13;;
29854;SDS011;16733;48.738;9.106;2023-08-24T08:13:39;6.18;;;3.17;;
29854;SDS011;16733;48.738;9.106;2023-08-24T08:16:05;7.95;;;3.20;;
29854;SDS011;16733;48.738;9.106;2023-08-24T08:18:32;4.97;;;3.47;;
29854;SDS011;16733;48.738;9.106;2023-08-24T08:20:58;5.32;;;3.50;;
29854;SDS011;16733;48.738;9.106;2023-08-24T08:23:24;11.43;;;3.80;;
29854;SDS011;16733;48.738;9.106;2023-08-24T08:25:50;7.10;;;3.58;;
29854;SDS011;16733;48.738;9.106;2023-08-24T08:28:17;17.90;;;3.30;;
29854;SDS011;16733;48.738;9.106;2023-08-24T08:30:43;10.65;;;3.72;;
29854;SDS011;16733;48.738;9.106;2023-08-24T08:33:10;7.68;;;3.92;;
29854;SDS011;16733;48.738;9.106;2023-08-24T08:35:37;10.93;;;3.47;;
29854;SDS011;16733;48.738;9.106;2023-08-24T08:38:03;6.68;;;3.38;;
29854;SDS011;16733;48.738;9.106;2023-08-24T08:40:29;6.38;;;3.92;;
29854;SDS011;16733;48.738;9.106;2023-08-24T08:42:57;6.05;;;3.42;;
29854;SDS011;16733;48.738;9.106;2023-08-24T08:45:26;11.55;;;3.35;;
29854;SDS011;16733;48.738;9.106;2023-08-24T08:47:59;8.57;;;3.00;;
29854;SDS011;16733;48.738;9.106;2023-08-24T08:50:26;8.00;;;3.55;;
29854;SDS011;16733;48.738;9.106;2023-08-24T08:52:52;10.65;;;3.13;;
29854;SDS011;16733;48.738;9.106;2023-08-24T08:55:18;5.43;;;3.50;;
29854;SDS011;16733;48.738;9.106;2023-08-24T08:57:48;10.40;;;3.10;;
29854;SDS011;16733;48.738;9.106;2023-08-24T09:00:15;5.30;;;3.03;;
29854;SDS011;16733;48.738;9.106;2023-08-24T09:02:42;5.28;;;3.25;;
29854;SDS011;16733;48.738;9.106;2023-08-24T09:05:10;15.63;;;4.10;;
29854;SDS011;16733;48.738;9.106;2023-08-24T09:07:36;6.78;;;3.45;;
29854;SDS011;16733;48.738;9.106;2023-08-24T09:10:05;15.50;;;3.13;;
29854;SDS011;16733;48.738;9.106;2023-08-24T09:12:32;6.13;;;3.55;;
29854;SDS011;16733;48.738;9.106;2023-08-24T09:14:58;5.88;;;3.20;;
29854;SDS011;16733;48.738;9.106;2023-08-24T09:17:24;10.23;;;3.25;;
29854;SDS011;16733;48.738;9.106;2023-08-24T09:19:55;9.70;;;3.45;;
29854;SDS011;16733;48.738;9.106;2023-08-24T09:22:23;5.07;;;3.20;;
29854;SDS011;16733;48.738;9.106;2023-08-24T09:24:49;6.22;;;3.08;;
29854;SDS011;16733;48.738;9.106;2023-08-24T09:27:16;8.65;;;3.50;;
29854;SDS011;16733;48.738;9.106;2023-08-24T09:29:42;4.75;;;3.38;;
29854;SDS011;16733;48.738;9.106;2023-08-24T09:32:08;8.25;;;3.03;;
29854;SDS011;16733;48.738;9.106;2023-08-24T09:34:36;8.80;;;3.17;;
29854;SDS011;16733;48.738;9.106;2023-08-24T09:37:02;10.43;;;3.47;;
29854;SDS011;16733;48.738;9.106;2023-08-24T09:39:31;4.97;;;3.00;;
29854;SDS011;16733;48.738;9.106;2023-08-24T09:41:59;7.53;;;2.90;;
29854;SDS011;16733;48.738;9.106;2023-08-24T09:44:29;5.90;;;3.25;;
29854;SDS011;16733;48.738;9.106;2023-08-24T09:46:55;10.95;;;3.08;;
29854;SDS011;16733;48.738;9.106;2023-08-24T09:49:21;10.10;;;3.20;;
29854;SDS011;16733;48.738;9.106;2023-08-24T09:51:47;6.38;;;3.45;;
29854;SDS011;16733;48.738;9.106;2023-08-24T09:54:14;7.10;;;3.33;;
29854;SDS011;16733;48.738;9.106;2023-08-24T09:56:41;5.53;;;3.00;;
29854;SDS011;16733;48.738;9.106;2023-08-24T09:59:11;7.68;;;3.08;;
29854;SDS011;16733;48.738;9.106;2023-08-24T10:01:40;7.35;;;3.35;;
29854;SDS011;16733;48.738;9.106;2023-08-24T10:04:06;5.32;;;2.85;;
29854;SDS011;16733;48.738;9.106;2023-08-24T10:06:33;8.00;;;3.30;;
29854;SDS011;16733;48.738;9.106;2023-08-24T10:09:01;5.70;;;2.78;;
29854;SDS011;16733;48.738;9.106;2023-08-24T10:11:32;4.75;;;2.80;;
29854;SDS011;16733;48.738;9.106;2023-08-24T10:16:27;11.52;;;3.13;;
29854;SDS011;16733;48.738;9.106;2023-08-24T10:18:54;6.72;;;2.85;;
29854;SDS011;16733;48.738;9.106;2023-08-24T10:21:21;6.22;;;3.38;;
29854;SDS011;16733;48.738;9.106;2023-08-24T10:23:52;6.78;;;3.78;;
29854;SDS011;16733;48.738;9.106;2023-08-24T10:26:19;8.65;;;2.70;;
29854;SDS011;16733;48.738;9.106;2023-08-24T10:28:46;6.35;;;2.92;;
29854;SDS011;16733;48.738;9.106;2023-08-24T10:31:12;9.23;;;3.13;;
29854;SDS011;16733;48.738;9.106;2023-08-24T10:33:38;7.63;;;2.80;;
29854;SDS011;16733;48.738;9.106;2023-08-24T10:36:05;4.60;;;2.80;;
29854;SDS011;16733;48.738;9.106;2023-08-24T10:38:34;10.70;;;3.00;;
29854;SDS011;16733;48.738;9.106;2023-08-24T10:41:03;9.48;;;3.35;;
29854;SDS011;16733;48.738;9.106;2023-08-24T10:43:29;8.45;;;2.95;;
29854;SDS011;16733;48.738;9.106;2023-08-24T10:48:24;7.40;;;3.20;;
29854;SDS011;16733;48.738;9.106;2023-08-24T10:54:09;8.90;;;2.97;;
29854;SDS011;16733;48.738;9.106;2023-08-24T10:56:36;6.57;;;3.25;;
29854;SDS011;16733;48.738;9.106;2023-08-24T10:59:16;6.35;;;3.22;;
29854;SDS011;16733;48.738;9.106;2023-08-24T11:01:43;5.40;;;3.35;;
29854;SDS011;16733;48.738;9.106;2023-08-24T11:04:10;5.68;;;2.90;;
29854;SDS011;16733;48.738;9.106;2023-08-24T11:09:18;7.32;;;2.88;;
29854;SDS011;16733;48.738;9.106;2023-08-24T11:12:00;6.15;;;3.20;;
29854;SDS011;16733;48.738;9.106;2023-08-24T11:14:27;8.07;;;3.20;;
29854;SDS011;16733;48.738;9.106;2023-08-24T11:16:59;9.53;;;3.80;;
29854;SDS011;16733;48.738;9.106;2023-08-24T11:19:25;5.03;;;2.95;;
29854;SDS011;16733;48.738;9.106;2023-08-24T11:21:51;6.55;;;2.92;;
29854;SDS011;16733;48.738;9.106;2023-08-24T11:24:17;13.52;;;3.65;;
29854;SDS011;16733;48.738;9.106;2023-08-24T11:26:44;5.45;;;2.95;;
29854;SDS011;16733;48.738;9.106;2023-08-24T11:29:10;7.40;;;3.08;;
29854;SDS011;16733;48.738;9.106;2023-08-24T11:31:36;6.53;;;3.33;;
29854;SDS011;16733;48.738;9.106;2023-08-24T11:34:02;8.15;;;3.20;;
29854;SDS011;16733;48.738;9.106;2023-08-24T11:36:29;5.57;;;3.10;;
29854;SDS011;16733;48.738;9.106;2023-08-24T11:38:56;6.93;;;3.28;;
29854;SDS011;16733;48.738;9.106;2023-08-24T11:41:23;7.80;;;3.22;;
29854;SDS011;16733;48.738;9.106;2023-08-24T11:43:49;8.45;;;3.25;;
29854;SDS011;16733;48.738;9.106;2023-08-24T11:46:19;3.47;;;2.83;;
29854;SDS011;16733;48.738;9.106;2023-08-24T11:48:45;5.47;;;3.13;;
29854;SDS011;16733;48.738;9.106;2023-08-24T11:51:11;5.68;;;3.30;;
29854;SDS011;16733;48.738;9.106;2023-08-24T11:53:39;11.57;;;3.13;;
29854;SDS011;16733;48.738;9.106;2023-08-24T11:56:05;11.32;;;3.05;;
29854;SDS011;16733;48.738;9.106;2023-08-24T11:58:33;4.53;;;3.50;;
29854;SDS011;16733;48.738;9.106;2023-08-24T12:00:59;10.75;;;4.47;;
29854;SDS011;16733;48.738;9.106;2023-08-24T12:03:25;9.05;;;3.03;;
29854;SDS011;16733;48.738;9.106;2023-08-24T12:05:52;4.32;;;2.95;;
29854;SDS011;16733;48.738;9.106;2023-08-24T12:08:18;6.03;;;3.00;;
29854;SDS011;16733;48.738;9.106;2023-08-24T12:10:44;11.70;;;3.22;;
29854;SDS011;16733;48.738;9.106;2023-08-24T12:13:11;6.93;;;2.97;;
29854;SDS011;16733;48.738;9.106;2023-08-24T12:15:37;6.03;;;3.50;;
29854;SDS011;16733;48.738;9.106;2023-08-24T12:18:07;7.05;;;3.05;;
29854;SDS011;16733;48.738;9.106;2023-08-24T12:20:33;8.50;;;3.53;;
29854;SDS011;16733;48.738;9.106;2023-08-24T12:22:59;10.52;;;3.25;;
29854;SDS011;16733;48.738;9.106;2023-08-24T12:25:25;8.82;;;3.35;;
29854;SDS011;16733;48.738;9.106;2023-08-24T12:27:52;6.15;;;3.13;;
29854;SDS011;16733;48.738;9.106;2023-08-24T12:30:18;13.90;;;3.63;;
29854;SDS011;16733;48.738;9.106;2023-08-24T12:32:45;7.28;;;2.72;;
29854;SDS011;16733;48.738;9.106;2023-08-24T12:35:11;5.70;;;2.90;;
29854;SDS011;16733;48.738;9.106;2023-08-24T12:37:37;9.82;;;3.50;;
29854;SDS011;16733;48.738;9.106;2023-08-24T12:40:04;7.95;;;3.30;;
29854;SDS011;16733;48.738;9.106;2023-08-24T12:42:30;8.93;;;2.72;;
29854;SDS011;16733;48.738;9.106;2023-08-24T12:44:56;10.45;;;2.88;;
29854;SDS011;16733;48.738;9.106;2023-08-24T12:47:22;7.90;;;3.10;;
29854;SDS011;16733;48.738;9.106;2023-08-24T12:49:48;10.00;;;3.08;;
29854;SDS011;16733;48.738;9.106;2023-08-24T12:52:19;10.23;;;3.47;;
29854;SDS011;16733;48.738;9.106;2023-08-24T12:54:45;10.73;;;2.95;;
29854;SDS011;16733;48.738;9.106;2023-08-24T12:57:11;7.47;;;2.95;;
29854;SDS011;16733;48.738;9.106;2023-08-24T12:59:37;7.25;;;2.80;;
29854;SDS011;16733;48.738;9.106;2023-08-24T13:02:03;11.77;;;3.30;;
29854;SDS011;16733;48.738;9.106;2023-08-24T13:04:29;5.25;;;2.92;;
29854;SDS011;16733;48.738;9.106;2023-08-24T13:06:57;13.50;;;3.63;;
29854;SDS011;16733;48.738;9.106;2023-08-24T13:09:23;10.68;;;2.88;;
29854;SDS011;16733;48.738;9.106;2023-08-24T13:11:49;5.03;;;2.80;;
29854;SDS011;16733;48.738;9.106;2023-08-24T13:14:15;9.57;;;3.50;;
29854;SDS011;16733;48.738;9.106;2023-08-24T13:16:41;16.65;;;3.20;;
29854;SDS011;16733;48.738;9.106;2023-08-24T13:19:07;20.45;;;2.85;;
29854;SDS011;16733;48.738;9.106;2023-08-24T13:21:33;6.90;;;2.88;;
29854;SDS011;16733;48.738;9.106;2023-08-24T13:23:59;10.80;;;3.17;;
29854;SDS011;16733;48.738;9.106;2023-08-24T13:26:25;9.25;;;2.58;;
29854;SDS011;16733;48.738;9.106;2023-08-24T13:28:51;5.18;;;2.97;;
29854;SDS011;16733;48.738;9.106;2023-08-24T13:31:17;15.50;;;3.30;;
29854;SDS011;16733;48.738;9.106;2023-08-24T13:33:46;9.05;;;3.38;;
29854;SDS011;16733;48.738;9.106;2023-08-24T13:36:12;13.80;;;2.97;;
29854;SDS011;16733;48.738;9.106;2023-08-24T13:38:38;11.18;;;2.90;;
29854;SDS011;16733;48.738;9.106;2023-08-24T13:41:05;12.00;;;2.90;;
29854;SDS011;16733;48.738;9.106;2023-08-24T13:43:31;13.52;;;2.55;;
29854;SDS011;16733;48.738;9.106;2023-08-24T13:45:57;12.93;;;3.40;;
29854;SDS011;16733;48.738;9.106;2023-08-24T13:48:23;11.48;;;2.70;;
29854;SDS011;16733;48.738;9.106;2023-08-24T13:50:52;10.70;;;2.67;;
29854;SDS011;16733;48.738;9.106;2023-08-24T13:53:18;10.63;;;2.63;;
29854;SDS011;16733;48.738;9.106;2023-08-24T13:55:44;6.47;;;2.67;;
29854;SDS011;16733;48.738;9.106;2023-08-24T13:58:10;9.48;;;2.22;;
29854;SDS011;16733;48.738;9.106;2023-08-24T14:00:36;11.00;;;2.45;;
29854;SDS011;16733;48.738;9.106;2023-08-24T14:03:03;5.68;;;2.60;;
29854;SDS011;16733;48.738;9.106;2023-08-24T14:05:29;10.50;;;2.67;;
29854;SDS011;16733;48.738;9.106;2023-08-24T14:07:55;16.48;;;2.88;;
29854;SDS011;16733;48.738;9.106;2023-08-24T14:10:21;13.38;;;2.75;;
29854;SDS011;16733;48.738;9.106;2023-08-24T14:12:47;10.50;;;2.95;;
29854;SDS011;16733;48.738;9.106;2023-08-24T14:15:13;9.13;;;2.33;;
29854;SDS011;16733;48.738;9.106;2023-08-24T14:17:39;4.65;;;2.50;;
29854;SDS011;16733;48.738;9.106;2023-08-24T14:20:05;8.93;;;2.53;;
29854;SDS011;16733;48.738;9.106;2023-08-24T14:22:33;12.52;;;2.60;;
29854;SDS011;16733;48.738;9.106;2023-08-24T14:24:59;9.48;;;2.50;;
29854;SDS011;16733;48.738;9.106;2023-08-24T14:27:25;7.50;;;2.35;;
29854;SDS011;16733;48.738;9.106;2023-08-24T14:29:51;14.35;;;2.55;;
29854;SDS011;16733;48.738;9.106;2023-08-24T14:32:17;12.07;;;2.50;;
29854;SDS011;16733;48.738;9.106;2023-08-24T14:34:43;7.38;;;2.55;;
29854;SDS011;16733;48.738;9.106;2023-08-24T14:37:09;10.68;;;3.17;;
29854;SDS011;16733;48.738;9.106;2023-08-24T14:39:35;15.40;;;2.72;;
29854;SDS011;16733;48.738;9.106;2023-08-24T14:42:01;12.32;;;2.80;;
29854;SDS011;16733;48.738;9.106;2023-08-24T14:44:28;10.15;;;2.67;;
29854;SDS011;16733;48.738;9.106;2023-08-24T14:46:54;5.65;;;2.72;;
29854;SDS011;16733;48.738;9.106;2023-08-24T14:49:20;7.75;;;2.67;;
29854;SDS011;16733;48.738;9.106;2023-08-24T14:51:46;9.60;;;2.72;;
29854;SDS011;16733;48.738;9.106;2023-08-24T14:54:12;13.77;;;3.65;;
29854;SDS011;16733;48.738;9.106;2023-08-24T14:56:39;11.13;;;2.80;;
29854;SDS011;16733;48.738;9.106;2023-08-24T14:59:05;8.45;;;3.15;;
29854;SDS011;16733;48.738;9.106;2023-08-24T15:01:31;12.18;;;3.03;;